Weather observations for the past three days for
Rolla / Vichy, Rolla National Airport
Imperial (Metric)
Date Time (cdt) Wind (mph) Vis. (mi.) Weather Sky Cond. Temperature (ºF) Relative Humidity Wind Chill (°F) Heat Index (°F) Pressure Precipitation (in)
Air Dwpt 6 hour altimeter (in) sea level (mb) 1 hr 3 hr 6 hr
Max. Min.
01 15:53 E 7 10.00 Fair CLR 96.1 66 37% 100 30.02 1015.1
01 14:53 SE 3 10.00 A Few Clouds FEW090 93.9 69.1 44% 99 30.04 1015.7
01 13:53 S 5 10.00 Fair CLR 93.9 68 43% 98 30.06 1016.3
01 12:53 Calm 10.00 Fair CLR 93.9 69.1 93.9 73.9 44% 99 30.07 1016.8
01 11:53 W 5 10.00 Fair CLR 91 70 50% 97 30.09 1017.6
01 10:53 SW 7 10.00 Fair CLR 87.1 70 57% 92 30.1 1017.8
01 09:53 SW 10 10.00 Fair CLR 84 69.1 61% 88 30.1 1018.0
01 08:53 S 13 10.00 Fair CLR 81 69.1 67% 84 30.11 1018.1
01 07:53 S 9 10.00 Fair CLR 77 66.9 71% 79 30.1 1017.9
01 06:53 S 10 10.00 Fair CLR 73.9 66 80.1 73 76% 30.08 1017.2
01 05:53 S 10 10.00 Fair CLR 73 64.9 76% 30.07 1016.8
01 04:53 S 10 10.00 Fair CLR 73 64 74% 30.06 1016.5
01 03:53 SW 10 10.00 Fair CLR 75 64 69% 77 30.06 1016.2
01 02:53 S 10 10.00 Fair CLR 75.9 64 67% 78 30.04 1015.9
01 01:53 S 9 10.00 Fair CLR 77 64 64% 79 30.05 1016.0
01 00:53 S 10 10.00 Fair CLR 80.1 64.9 88 79 60% 82 30.05 1015.9
31 23:53 S 9 10.00 Fair CLR 80.1 66.9 64% 82 30.04 1015.7
31 21:53 SE 8 10.00 Fair CLR 80.1 69.1 69% 83 30.04 1015.8
31 20:53 SE 9 10.00 Fair CLR 81 70 69% 84 30.02 1015.3
31 19:53 SE 8 10.00 Fair CLR 84 70 63% 88 30 1014.7
31 18:53 SE 9 10.00 Fair CLR 88 71.1 97 88 57% 94 30 1014.4
31 17:53 SE 7 10.00 Fair CLR 93 69.1 46% 98 29.99 1014.2
31 16:53 SE 8 10.00 A Few Clouds FEW085 96.1 66 37% 100 30 1014.2
31 15:53 S 10 10.00 Fair CLR 97 64.9 35% 100 30.01 1014.5
31 14:53 SE 7 10.00 A Few Clouds FEW075 96.1 64.9 36% 99 30.02 1015.1
31 13:53 Calm 10.00 Fair CLR 95 66 39% 98 30.04 1015.7
31 12:53 SW 9 10.00 Fair CLR 93 66.9 93 73 42% 97 30.06 1016.4
31 11:53 SW 7 10.00 Fair CLR 91 68 47% 95 30.08 1017.2
31 10:53 SW 10 10.00 Fair CLR 87.1 66.9 51% 90 30.08 1017.3
31 09:53 SW 13 10.00 Fair CLR 82 66 58% 84 30.08 1017.1
31 08:53 S 12 10.00 Fair CLR 79 63 58% 81 30.07 1017.1
31 07:53 SW 10 10.00 Fair CLR 75.9 62.1 62% 78 30.07 1016.8
31 06:53 S 10 10.00 Fair CLR 73 60.1 78.1 73 64% 30.04 1016.1
31 05:53 S 12 10.00 Fair CLR 75 59 58% 77 30.04 1015.7
31 04:53 S 12 10.00 Fair CLR 75 57.9 55% 78 30.03 1015.4
31 03:53 S 13 10.00 Fair CLR 75 57.9 55% 78 30.03 1015.3
31 02:53 S 10 10.00 Fair CLR 73.9 57.9 57% 30.02 1014.9
31 01:53 S 10 10.00 Fair CLR 75.9 57.9 54% 78 30.03 1015.3
31 00:53 S 12 10.00 Fair CLR 78.1 59 84.9 78.1 52% 79 30.03 1015.5
30 23:53 S 10 10.00 Fair CLR 78.1 59 52% 79 30.02 1015.1
30 22:53 SE 12 10.00 Fair CLR 79 60.1 52% 80 30.01 1014.9
30 21:53 SE 12 10.00 Fair CLR 79 64 60% 81 30 1014.7
30 20:53 SE 10 10.00 Fair CLR 80.1 66.9 64% 82 29.99 1014.2
30 19:53 SE 9 10.00 Fair CLR 81 69.1 67% 84 29.97 1013.8
30 18:53 SE 9 10.00 Fair CLR 84.9 68 95 84.9 57% 88 29.98 1013.9
30 17:53 SE 9 10.00 Fair CLR 90 68 48% 94 29.98 1013.8
30 16:53 SE 7 10.00 Fair CLR 93.9 64.9 38% 96 29.98 1013.7
30 15:53 S 9 10.00 Fair CLR 93.9 63 36% 95 29.99 1014.1
30 14:53 S 8 10.00 Fair CLR 93.9 62.1 35% 95 30.01 1014.7
30 13:53 S 7 10.00 Fair CLR 93.9 64 37% 96 30.03 1015.3
30 12:53 S 10 10.00 Fair CLR 90 64 90 69.1 42% 91 30.04 1015.7
30 11:53 S 10 10.00 Fair CLR 88 63 43% 89 30.06 1016.5
30 10:53 S 14 10.00 Fair CLR 84 62.1 48% 85 30.06 1016.6
30 09:53 S 15 10.00 Fair CLR 81 61 51% 82 30.05 1016.4
30 08:53 S 14 10.00 Fair CLR 77 60.1 56% 79 30.05 1016.4
30 07:53 S 14 10.00 Fair CLR 72 57.9 61% 30.06 1016.8
30 06:53 S 12 10.00 Fair CLR 69.1 57 73.9 69.1 66% 30.06 1016.8
30 05:53 S 14 10.00 Fair CLR 71.1 57 61% 30.04 1016.2
30 04:53 S 12 10.00 Fair CLR 71.1 57 61% 30.05 1016.3
30 03:53 S 13 10.00 Fair CLR 73 57 57% 30.05 1016.2
30 02:53 S 14 10.00 Fair CLR 73 55.9 55% 30.04 1016.0
30 01:53 S 13 10.00 Fair CLR 73 59 62% 30.04 1016.1
30 00:53 S 12 10.00 Fair CLR 73 60.1 80.1 72 64% 30.05 1016.4
29 23:53 S 10 10.00 Fair CLR 73.9 60.1 62% 30.05 1016.4
29 22:53 S 10 10.00 Fair CLR 73 62.1 69% 30.06 1016.5
29 21:53 SE 10 10.00 Fair CLR 73.9 64 71% 30.05 1016.5
29 20:53 SE 10 10.00 Fair CLR 75 64 69% 77 30.04 1016.0
29 19:53 SE 9 10.00 Fair CLR 75.9 64 67% 78 30.03 1015.8
29 18:53 SE 10 G 21 10.00 Fair CLR 81 64 87.1 81 57% 83 30.03 1016.0
29 17:53 E 9 10.00 Fair CLR 82 64 55% 84 30.04 1016.1
29 16:53 SE 9 10.00 Fair CLR 84.9 64.9 51% 87 30.04 1016.3
Date Time (cdt) Wind (mph) Vis. (mi.) Weather Sky Cond. Air Dwpt Max. Min. Relative Humidity Wind Chill (°F) Heat Index (°F) altimeter (in) sea level (mb) 1 hr 3 hr 6 hr
6 hour
Temperature (ºF) Pressure Precipitation (in)